sensor_id;sensor_type;location;lat;lon;timestamp;temperature;humidity
20231;DHT22;10274;49.022;9.338;2023-01-09T00:00:55;8.20;99.90
20231;DHT22;10274;49.022;9.338;2023-01-09T00:03:21;8.20;99.90
20231;DHT22;10274;49.022;9.338;2023-01-09T00:05:49;8.20;99.90
20231;DHT22;10274;49.022;9.338;2023-01-09T00:08:16;8.20;99.90
20231;DHT22;10274;49.022;9.338;2023-01-09T00:10:43;8.20;99.90
20231;DHT22;10274;49.022;9.338;2023-01-09T00:13:11;8.30;99.90
20231;DHT22;10274;49.022;9.338;2023-01-09T00:15:38;8.20;99.90
20231;DHT22;10274;49.022;9.338;2023-01-09T00:18:05;8.20;99.90
20231;DHT22;10274;49.022;9.338;2023-01-09T00:20:31;8.20;99.90
20231;DHT22;10274;49.022;9.338;2023-01-09T00:22:59;8.20;99.90
20231;DHT22;10274;49.022;9.338;2023-01-09T00:25:26;8.20;99.90
20231;DHT22;10274;49.022;9.338;2023-01-09T00:27:53;8.10;99.90
20231;DHT22;10274;49.022;9.338;2023-01-09T00:30:19;8.10;99.90
20231;DHT22;10274;49.022;9.338;2023-01-09T00:32:46;8.10;99.90
20231;DHT22;10274;49.022;9.338;2023-01-09T00:35:15;8.10;99.90
20231;DHT22;10274;49.022;9.338;2023-01-09T00:37:42;8.00;99.90
20231;DHT22;10274;49.022;9.338;2023-01-09T00:40:13;8.00;99.90
20231;DHT22;10274;49.022;9.338;2023-01-09T00:42:41;8.00;99.90
20231;DHT22;10274;49.022;9.338;2023-01-09T00:45:10;8.10;99.90
20231;DHT22;10274;49.022;9.338;2023-01-09T00:47:42;8.10;99.90
20231;DHT22;10274;49.022;9.338;2023-01-09T00:50:12;8.10;99.90
20231;DHT22;10274;49.022;9.338;2023-01-09T00:52:40;8.00;99.90
20231;DHT22;10274;49.022;9.338;2023-01-09T00:55:09;8.00;99.90
20231;DHT22;10274;49.022;9.338;2023-01-09T00:57:36;8.10;99.90
20231;DHT22;10274;49.022;9.338;2023-01-09T01:00:04;8.00;99.90
20231;DHT22;10274;49.022;9.338;2023-01-09T01:02:30;8.00;99.90
20231;DHT22;10274;49.022;9.338;2023-01-09T01:04:57;8.00;99.90
20231;DHT22;10274;49.022;9.338;2023-01-09T01:07:41;8.10;99.90
20231;DHT22;10274;49.022;9.338;2023-01-09T01:10:13;8.10;99.90
20231;DHT22;10274;49.022;9.338;2023-01-09T01:12:42;8.20;99.90
20231;DHT22;10274;49.022;9.338;2023-01-09T01:15:10;8.20;99.90
20231;DHT22;10274;49.022;9.338;2023-01-09T01:17:38;8.20;99.90
20231;DHT22;10274;49.022;9.338;2023-01-09T01:20:09;8.20;99.90
20231;DHT22;10274;49.022;9.338;2023-01-09T01:22:36;8.20;99.90
20231;DHT22;10274;49.022;9.338;2023-01-09T01:25:03;8.20;99.90
20231;DHT22;10274;49.022;9.338;2023-01-09T01:27:31;8.20;99.90
20231;DHT22;10274;49.022;9.338;2023-01-09T01:29:58;8.20;99.90
20231;DHT22;10274;49.022;9.338;2023-01-09T01:32:25;8.30;99.90
20231;DHT22;10274;49.022;9.338;2023-01-09T01:34:51;8.30;99.90
20231;DHT22;10274;49.022;9.338;2023-01-09T01:37:18;8.30;99.90
20231;DHT22;10274;49.022;9.338;2023-01-09T01:39:46;8.20;99.90
20231;DHT22;10274;49.022;9.338;2023-01-09T01:42:13;8.30;99.90
20231;DHT22;10274;49.022;9.338;2023-01-09T01:45:03;8.30;99.90
20231;DHT22;10274;49.022;9.338;2023-01-09T01:47:35;8.30;99.90
20231;DHT22;10274;49.022;9.338;2023-01-09T01:50:07;8.30;99.90
20231;DHT22;10274;49.022;9.338;2023-01-09T01:52:36;8.30;99.90
20231;DHT22;10274;49.022;9.338;2023-01-09T01:55:05;8.30;99.90
20231;DHT22;10274;49.022;9.338;2023-01-09T01:57:33;8.30;99.90
20231;DHT22;10274;49.022;9.338;2023-01-09T02:00:04;8.30;99.90
20231;DHT22;10274;49.022;9.338;2023-01-09T02:02:31;8.40;99.90
20231;DHT22;10274;49.022;9.338;2023-01-09T02:04:59;8.30;99.90
20231;DHT22;10274;49.022;9.338;2023-01-09T02:07:27;8.40;99.90
20231;DHT22;10274;49.022;9.338;2023-01-09T02:09:54;8.40;99.90
20231;DHT22;10274;49.022;9.338;2023-01-09T02:12:23;8.30;99.90
20231;DHT22;10274;49.022;9.338;2023-01-09T02:14:53;8.30;99.90
20231;DHT22;10274;49.022;9.338;2023-01-09T02:20:38;8.40;99.10
20231;DHT22;10274;49.022;9.338;2023-01-09T02:26:17;8.50;99.90
20231;DHT22;10274;49.022;9.338;2023-01-09T02:29:08;8.50;85.00
20231;DHT22;10274;49.022;9.338;2023-01-09T02:31:43;8.50;95.10
20231;DHT22;10274;49.022;9.338;2023-01-09T02:34:16;8.50;76.50
20231;DHT22;10274;49.022;9.338;2023-01-09T02:36:54;8.50;81.90
20231;DHT22;10274;49.022;9.338;2023-01-09T02:39:26;8.50;76.60
20231;DHT22;10274;49.022;9.338;2023-01-09T02:41:58;8.40;98.40
20231;DHT22;10274;49.022;9.338;2023-01-09T02:44:29;8.50;90.50
20231;DHT22;10274;49.022;9.338;2023-01-09T02:47:02;8.40;95.90
20231;DHT22;10274;49.022;9.338;2023-01-09T02:49:31;8.20;99.90
20231;DHT22;10274;49.022;9.338;2023-01-09T02:52:18;8.30;99.90
20231;DHT22;10274;49.022;9.338;2023-01-09T02:54:59;8.40;91.80
20231;DHT22;10274;49.022;9.338;2023-01-09T02:57:46;8.50;53.40
20231;DHT22;10274;49.022;9.338;2023-01-09T03:00:27;8.50;54.30
20231;DHT22;10274;49.022;9.338;2023-01-09T03:03:06;8.60;43.00
20231;DHT22;10274;49.022;9.338;2023-01-09T03:05:39;8.50;55.60
20231;DHT22;10274;49.022;9.338;2023-01-09T03:08:11;8.60;28.00
20231;DHT22;10274;49.022;9.338;2023-01-09T03:10:41;8.50;44.30
20231;DHT22;10274;49.022;9.338;2023-01-09T03:13:13;8.40;70.00
20231;DHT22;10274;49.022;9.338;2023-01-09T03:15:43;8.40;71.00
20231;DHT22;10274;49.022;9.338;2023-01-09T03:18:13;8.50;43.40
20231;DHT22;10274;49.022;9.338;2023-01-09T03:20:41;8.40;65.90
20231;DHT22;10274;49.022;9.338;2023-01-09T03:23:09;8.40;47.90
20231;DHT22;10274;49.022;9.338;2023-01-09T03:25:36;8.60;27.50
20231;DHT22;10274;49.022;9.338;2023-01-09T03:28:05;8.60;35.90
20231;DHT22;10274;49.022;9.338;2023-01-09T03:30:33;8.60;13.50
20231;DHT22;10274;49.022;9.338;2023-01-09T03:33:00;8.60;23.90
20231;DHT22;10274;49.022;9.338;2023-01-09T03:35:28;8.60;12.50
20231;DHT22;10274;49.022;9.338;2023-01-09T03:37:55;8.60;27.20
20231;DHT22;10274;49.022;9.338;2023-01-09T03:40:23;8.60;24.40
20231;DHT22;10274;49.022;9.338;2023-01-09T03:42:50;8.60;7.90
20231;DHT22;10274;49.022;9.338;2023-01-09T03:45:16;8.70;1.00
20231;DHT22;10274;49.022;9.338;2023-01-09T03:47:43;8.60;24.80
20231;DHT22;10274;49.022;9.338;2023-01-09T03:50:10;8.60;26.80
20231;DHT22;10274;49.022;9.338;2023-01-09T03:52:38;8.50;59.40
20231;DHT22;10274;49.022;9.338;2023-01-09T03:55:05;8.40;91.40
20231;DHT22;10274;49.022;9.338;2023-01-09T03:57:32;8.40;99.80
20231;DHT22;10274;49.022;9.338;2023-01-09T03:59:58;8.30;99.90
20231;DHT22;10274;49.022;9.338;2023-01-09T04:02:25;8.20;99.90
20231;DHT22;10274;49.022;9.338;2023-01-09T04:04:52;8.00;99.90
20231;DHT22;10274;49.022;9.338;2023-01-09T04:07:19;8.00;99.90
20231;DHT22;10274;49.022;9.338;2023-01-09T04:09:47;7.80;99.90
20231;DHT22;10274;49.022;9.338;2023-01-09T04:12:13;7.70;99.90
20231;DHT22;10274;49.022;9.338;2023-01-09T04:14:40;7.60;99.90
20231;DHT22;10274;49.022;9.338;2023-01-09T04:17:07;7.50;99.00
20231;DHT22;10274;49.022;9.338;2023-01-09T04:19:33;7.40;99.90
20231;DHT22;10274;49.022;9.338;2023-01-09T04:22:00;7.30;99.90
20231;DHT22;10274;49.022;9.338;2023-01-09T04:24:26;7.30;99.90
20231;DHT22;10274;49.022;9.338;2023-01-09T04:26:55;7.30;99.90
20231;DHT22;10274;49.022;9.338;2023-01-09T04:29:22;7.20;92.20
20231;DHT22;10274;49.022;9.338;2023-01-09T04:31:48;7.20;98.00
20231;DHT22;10274;49.022;9.338;2023-01-09T04:34:15;7.10;99.90
20231;DHT22;10274;49.022;9.338;2023-01-09T04:36:42;7.00;99.90
20231;DHT22;10274;49.022;9.338;2023-01-09T04:39:09;7.00;99.90
20231;DHT22;10274;49.022;9.338;2023-01-09T04:41:35;7.10;94.90
20231;DHT22;10274;49.022;9.338;2023-01-09T04:44:20;7.00;99.90
20231;DHT22;10274;49.022;9.338;2023-01-09T04:46:47;7.00;95.20
20231;DHT22;10274;49.022;9.338;2023-01-09T04:49:14;7.00;98.60
20231;DHT22;10274;49.022;9.338;2023-01-09T04:51:41;7.00;98.30
20231;DHT22;10274;49.022;9.338;2023-01-09T04:54:07;6.90;99.90
20231;DHT22;10274;49.022;9.338;2023-01-09T04:56:34;6.90;99.90
20231;DHT22;10274;49.022;9.338;2023-01-09T04:59:02;6.90;96.90
20231;DHT22;10274;49.022;9.338;2023-01-09T05:01:30;6.90;95.00
20231;DHT22;10274;49.022;9.338;2023-01-09T05:03:57;6.90;97.10
20231;DHT22;10274;49.022;9.338;2023-01-09T05:06:24;6.80;99.10
20231;DHT22;10274;49.022;9.338;2023-01-09T05:08:50;6.90;86.60
20231;DHT22;10274;49.022;9.338;2023-01-09T05:11:17;6.90;91.70
20231;DHT22;10274;49.022;9.338;2023-01-09T05:13:44;6.80;95.80
20231;DHT22;10274;49.022;9.338;2023-01-09T05:16:11;6.80;80.60
20231;DHT22;10274;49.022;9.338;2023-01-09T05:18:39;6.80;77.60
20231;DHT22;10274;49.022;9.338;2023-01-09T05:21:05;6.90;67.00
20231;DHT22;10274;49.022;9.338;2023-01-09T05:23:32;6.90;35.40
20231;DHT22;10274;49.022;9.338;2023-01-09T05:25:59;6.90;51.40
20231;DHT22;10274;49.022;9.338;2023-01-09T05:28:25;6.90;75.40
20231;DHT22;10274;49.022;9.338;2023-01-09T05:30:52;6.90;49.00
20231;DHT22;10274;49.022;9.338;2023-01-09T05:33:19;6.90;39.70
20231;DHT22;10274;49.022;9.338;2023-01-09T05:35:47;6.90;31.90
20231;DHT22;10274;49.022;9.338;2023-01-09T05:38:14;7.00;22.20
20231;DHT22;10274;49.022;9.338;2023-01-09T05:40:40;7.00;12.40
20231;DHT22;10274;49.022;9.338;2023-01-09T05:43:07;6.90;22.00
20231;DHT22;10274;49.022;9.338;2023-01-09T05:45:34;7.00;14.50
20231;DHT22;10274;49.022;9.338;2023-01-09T05:48:00;7.00;15.60
20231;DHT22;10274;49.022;9.338;2023-01-09T05:50:27;6.90;22.10
20231;DHT22;10274;49.022;9.338;2023-01-09T05:52:55;6.80;28.20
20231;DHT22;10274;49.022;9.338;2023-01-09T05:55:22;6.80;19.40
20231;DHT22;10274;49.022;9.338;2023-01-09T05:57:48;6.90;1.00
20231;DHT22;10274;49.022;9.338;2023-01-09T06:00:16;6.90;1.00
20231;DHT22;10274;49.022;9.338;2023-01-09T06:02:43;7.00;1.00
20231;DHT22;10274;49.022;9.338;2023-01-09T06:05:10;6.90;1.00
20231;DHT22;10274;49.022;9.338;2023-01-09T06:07:36;6.80;1.00
20231;DHT22;10274;49.022;9.338;2023-01-09T06:10:07;6.80;1.00
20231;DHT22;10274;49.022;9.338;2023-01-09T06:12:36;6.80;1.00
20231;DHT22;10274;49.022;9.338;2023-01-09T06:15:03;6.70;1.00
20231;DHT22;10274;49.022;9.338;2023-01-09T06:17:30;6.70;1.00
20231;DHT22;10274;49.022;9.338;2023-01-09T06:19:56;6.50;1.00
20231;DHT22;10274;49.022;9.338;2023-01-09T06:22:23;6.50;1.00
20231;DHT22;10274;49.022;9.338;2023-01-09T06:24:50;6.40;1.00
20231;DHT22;10274;49.022;9.338;2023-01-09T06:27:18;6.50;1.00
20231;DHT22;10274;49.022;9.338;2023-01-09T06:29:44;6.50;1.00
20231;DHT22;10274;49.022;9.338;2023-01-09T06:32:11;6.30;1.00
20231;DHT22;10274;49.022;9.338;2023-01-09T06:34:38;6.40;1.00
20231;DHT22;10274;49.022;9.338;2023-01-09T06:37:04;6.20;1.00
20231;DHT22;10274;49.022;9.338;2023-01-09T06:39:31;6.10;14.30
20231;DHT22;10274;49.022;9.338;2023-01-09T06:41:58;6.10;20.20
20231;DHT22;10274;49.022;9.338;2023-01-09T06:44:26;6.10;20.90
20231;DHT22;10274;49.022;9.338;2023-01-09T06:46:52;6.10;2.20
20231;DHT22;10274;49.022;9.338;2023-01-09T06:49:19;6.10;28.30
20231;DHT22;10274;49.022;9.338;2023-01-09T06:51:48;6.10;47.60
20231;DHT22;10274;49.022;9.338;2023-01-09T06:54:14;6.00;46.50
20231;DHT22;10274;49.022;9.338;2023-01-09T06:56:41;6.00;58.80
20231;DHT22;10274;49.022;9.338;2023-01-09T06:59:08;6.00;51.70
20231;DHT22;10274;49.022;9.338;2023-01-09T07:01:36;6.00;1.00
20231;DHT22;10274;49.022;9.338;2023-01-09T07:04:04;6.30;1.00
20231;DHT22;10274;49.022;9.338;2023-01-09T07:06:31;6.00;1.00
20231;DHT22;10274;49.022;9.338;2023-01-09T07:08:57;5.80;6.00
20231;DHT22;10274;49.022;9.338;2023-01-09T07:11:24;5.90;1.00
20231;DHT22;10274;49.022;9.338;2023-01-09T07:13:51;5.70;37.10
20231;DHT22;10274;49.022;9.338;2023-01-09T07:16:17;5.60;46.10
20231;DHT22;10274;49.022;9.338;2023-01-09T07:18:45;5.80;5.80
20231;DHT22;10274;49.022;9.338;2023-01-09T07:21:12;6.10;1.00
20231;DHT22;10274;49.022;9.338;2023-01-09T07:23:39;6.20;1.00
20231;DHT22;10274;49.022;9.338;2023-01-09T07:26:05;6.20;1.00
20231;DHT22;10274;49.022;9.338;2023-01-09T07:28:32;6.40;1.00
20231;DHT22;10274;49.022;9.338;2023-01-09T07:30:59;6.50;1.00
20231;DHT22;10274;49.022;9.338;2023-01-09T07:33:29;6.40;1.00
20231;DHT22;10274;49.022;9.338;2023-01-09T07:35:57;6.60;1.00
20231;DHT22;10274;49.022;9.338;2023-01-09T07:38:23;6.60;1.00
20231;DHT22;10274;49.022;9.338;2023-01-09T07:40:50;6.50;1.00
20231;DHT22;10274;49.022;9.338;2023-01-09T07:43:17;6.60;1.00
20231;DHT22;10274;49.022;9.338;2023-01-09T07:45:45;6.50;1.00
20231;DHT22;10274;49.022;9.338;2023-01-09T07:48:11;6.50;1.00
20231;DHT22;10274;49.022;9.338;2023-01-09T07:50:38;6.50;1.00
20231;DHT22;10274;49.022;9.338;2023-01-09T07:53:06;6.60;1.00
20231;DHT22;10274;49.022;9.338;2023-01-09T07:55:33;6.70;1.00
20231;DHT22;10274;49.022;9.338;2023-01-09T07:58:00;6.70;1.00
20231;DHT22;10274;49.022;9.338;2023-01-09T08:00:27;6.90;1.00
20231;DHT22;10274;49.022;9.338;2023-01-09T08:02:54;6.80;1.00
20231;DHT22;10274;49.022;9.338;2023-01-09T08:05:20;6.70;1.00
20231;DHT22;10274;49.022;9.338;2023-01-09T08:07:47;6.70;1.00
20231;DHT22;10274;49.022;9.338;2023-01-09T08:10:17;6.80;1.00
20231;DHT22;10274;49.022;9.338;2023-01-09T08:12:44;6.80;1.00
20231;DHT22;10274;49.022;9.338;2023-01-09T08:15:11;6.80;1.00
20231;DHT22;10274;49.022;9.338;2023-01-09T08:17:39;6.90;1.00
20231;DHT22;10274;49.022;9.338;2023-01-09T08:20:07;6.90;1.00
20231;DHT22;10274;49.022;9.338;2023-01-09T08:22:35;7.10;1.00
20231;DHT22;10274;49.022;9.338;2023-01-09T08:25:02;7.70;1.00
20231;DHT22;10274;49.022;9.338;2023-01-09T08:27:30;7.70;1.00
20231;DHT22;10274;49.022;9.338;2023-01-09T08:29:56;7.40;1.00
20231;DHT22;10274;49.022;9.338;2023-01-09T08:32:23;7.20;1.00
20231;DHT22;10274;49.022;9.338;2023-01-09T08:34:50;7.30;1.00
20231;DHT22;10274;49.022;9.338;2023-01-09T08:37:17;7.20;1.00
20231;DHT22;10274;49.022;9.338;2023-01-09T08:39:44;7.40;1.00
20231;DHT22;10274;49.022;9.338;2023-01-09T08:42:10;7.40;1.00
20231;DHT22;10274;49.022;9.338;2023-01-09T08:44:56;7.30;1.00
20231;DHT22;10274;49.022;9.338;2023-01-09T08:47:40;7.30;1.00
20231;DHT22;10274;49.022;9.338;2023-01-09T08:50:08;7.60;99.90
20231;DHT22;10274;49.022;9.338;2023-01-09T08:52:34;7.90;99.90
20231;DHT22;10274;49.022;9.338;2023-01-09T08:55:01;7.90;99.90
20231;DHT22;10274;49.022;9.338;2023-01-09T08:57:28;7.70;99.90
20231;DHT22;10274;49.022;9.338;2023-01-09T08:59:56;7.70;99.90
20231;DHT22;10274;49.022;9.338;2023-01-09T09:02:23;7.70;99.90
20231;DHT22;10274;49.022;9.338;2023-01-09T09:04:49;7.60;99.90
20231;DHT22;10274;49.022;9.338;2023-01-09T09:07:17;7.70;99.90
20231;DHT22;10274;49.022;9.338;2023-01-09T09:09:50;8.00;99.90
20231;DHT22;10274;49.022;9.338;2023-01-09T09:12:17;7.90;99.90
20231;DHT22;10274;49.022;9.338;2023-01-09T09:14:44;7.90;99.90
20231;DHT22;10274;49.022;9.338;2023-01-09T09:17:29;7.90;99.90
20231;DHT22;10274;49.022;9.338;2023-01-09T09:19:57;7.90;99.90
20231;DHT22;10274;49.022;9.338;2023-01-09T09:22:24;9.60;1.00
20231;DHT22;10274;49.022;9.338;2023-01-09T09:24:50;10.40;99.90
20231;DHT22;10274;49.022;9.338;2023-01-09T09:27:17;11.30;1.00
20231;DHT22;10274;49.022;9.338;2023-01-09T09:29:44;10.90;1.00
20231;DHT22;10274;49.022;9.338;2023-01-09T09:32:11;11.50;99.90
20231;DHT22;10274;49.022;9.338;2023-01-09T09:34:39;11.60;92.70
20231;DHT22;10274;49.022;9.338;2023-01-09T09:37:06;12.60;1.00
20231;DHT22;10274;49.022;9.338;2023-01-09T09:39:32;11.50;1.00
20231;DHT22;10274;49.022;9.338;2023-01-09T09:42:12;11.10;1.00
20231;DHT22;10274;49.022;9.338;2023-01-09T09:45:09;9.80;99.90
20231;DHT22;10274;49.022;9.338;2023-01-09T09:47:47;9.70;1.00
20231;DHT22;10274;49.022;9.338;2023-01-09T09:50:28;9.70;1.00
20231;DHT22;10274;49.022;9.338;2023-01-09T09:53:06;10.00;1.00
20231;DHT22;10274;49.022;9.338;2023-01-09T09:55:36;10.40;99.90
20231;DHT22;10274;49.022;9.338;2023-01-09T09:58:10;9.60;1.00
20231;DHT22;10274;49.022;9.338;2023-01-09T10:00:39;9.40;1.00
20231;DHT22;10274;49.022;9.338;2023-01-09T10:03:10;9.40;85.70
20231;DHT22;10274;49.022;9.338;2023-01-09T10:05:42;9.60;1.00
20231;DHT22;10274;49.022;9.338;2023-01-09T10:08:26;9.20;99.90
20231;DHT22;10274;49.022;9.338;2023-01-09T10:10:55;9.10;1.00
20231;DHT22;10274;49.022;9.338;2023-01-09T10:13:23;9.00;1.00
20231;DHT22;10274;49.022;9.338;2023-01-09T10:16:19;8.90;1.00
20231;DHT22;10274;49.022;9.338;2023-01-09T10:18:57;8.90;99.90
20231;DHT22;10274;49.022;9.338;2023-01-09T10:21:34;9.10;1.00
20231;DHT22;10274;49.022;9.338;2023-01-09T10:24:16;8.90;1.00
20231;DHT22;10274;49.022;9.338;2023-01-09T10:26:47;8.90;1.00
20231;DHT22;10274;49.022;9.338;2023-01-09T10:29:36;8.80;1.00
20231;DHT22;10274;49.022;9.338;2023-01-09T10:32:17;8.70;1.00
20231;DHT22;10274;49.022;9.338;2023-01-09T10:34:53;8.70;99.80
20231;DHT22;10274;49.022;9.338;2023-01-09T10:37:28;8.80;1.00
20231;DHT22;10274;49.022;9.338;2023-01-09T10:39:59;8.80;1.00
20231;DHT22;10274;49.022;9.338;2023-01-09T10:42:31;9.00;1.00
20231;DHT22;10274;49.022;9.338;2023-01-09T10:45:03;8.90;99.90
20231;DHT22;10274;49.022;9.338;2023-01-09T10:47:32;8.70;1.00
20231;DHT22;10274;49.022;9.338;2023-01-09T10:50:01;8.60;1.00
20231;DHT22;10274;49.022;9.338;2023-01-09T10:52:34;8.60;1.00
20231;DHT22;10274;49.022;9.338;2023-01-09T10:55:11;8.60;99.90
20231;DHT22;10274;49.022;9.338;2023-01-09T10:57:43;8.70;99.90
20231;DHT22;10274;49.022;9.338;2023-01-09T11:00:17;8.70;1.00
20231;DHT22;10274;49.022;9.338;2023-01-09T11:02:45;8.90;1.00
20231;DHT22;10274;49.022;9.338;2023-01-09T11:05:14;8.90;1.00
20231;DHT22;10274;49.022;9.338;2023-01-09T11:07:45;8.80;1.00
20231;DHT22;10274;49.022;9.338;2023-01-09T11:10:14;8.90;99.90
20231;DHT22;10274;49.022;9.338;2023-01-09T11:12:41;8.80;99.90
20231;DHT22;10274;49.022;9.338;2023-01-09T11:15:26;8.70;99.90
20231;DHT22;10274;49.022;9.338;2023-01-09T11:18:20;8.70;1.00
20231;DHT22;10274;49.022;9.338;2023-01-09T11:20:49;8.70;1.00
20231;DHT22;10274;49.022;9.338;2023-01-09T11:23:25;8.70;99.90
20231;DHT22;10274;49.022;9.338;2023-01-09T11:25:55;8.70;99.90
20231;DHT22;10274;49.022;9.338;2023-01-09T11:28:21;8.70;99.90
20231;DHT22;10274;49.022;9.338;2023-01-09T11:30:53;8.80;99.90
20231;DHT22;10274;49.022;9.338;2023-01-09T11:33:22;8.80;46.30
20231;DHT22;10274;49.022;9.338;2023-01-09T11:36:04;8.80;1.00
20231;DHT22;10274;49.022;9.338;2023-01-09T11:38:47;8.70;1.00
20231;DHT22;10274;49.022;9.338;2023-01-09T11:41:17;8.90;99.90
20231;DHT22;10274;49.022;9.338;2023-01-09T11:43:46;8.90;1.00
20231;DHT22;10274;49.022;9.338;2023-01-09T11:46:30;8.90;99.90
20231;DHT22;10274;49.022;9.338;2023-01-09T11:48:58;9.00;1.00
20231;DHT22;10274;49.022;9.338;2023-01-09T11:51:26;8.90;1.00
20231;DHT22;10274;49.022;9.338;2023-01-09T11:53:59;8.90;1.00
20231;DHT22;10274;49.022;9.338;2023-01-09T11:56:28;8.90;1.00
20231;DHT22;10274;49.022;9.338;2023-01-09T11:58:55;9.10;26.30
20231;DHT22;10274;49.022;9.338;2023-01-09T12:01:36;9.10;99.90
20231;DHT22;10274;49.022;9.338;2023-01-09T12:04:21;9.20;99.90
20231;DHT22;10274;49.022;9.338;2023-01-09T12:07:13;9.20;99.90
20231;DHT22;10274;49.022;9.338;2023-01-09T12:09:49;9.30;1.00
20231;DHT22;10274;49.022;9.338;2023-01-09T12:12:24;9.40;1.00
20231;DHT22;10274;49.022;9.338;2023-01-09T12:15:02;9.40;99.90
20231;DHT22;10274;49.022;9.338;2023-01-09T12:17:46;9.40;1.00
20231;DHT22;10274;49.022;9.338;2023-01-09T12:20:26;9.30;1.00
20231;DHT22;10274;49.022;9.338;2023-01-09T12:23:04;9.20;1.00
20231;DHT22;10274;49.022;9.338;2023-01-09T12:25:45;9.10;1.00
20231;DHT22;10274;49.022;9.338;2023-01-09T12:28:31;8.90;1.00
20231;DHT22;10274;49.022;9.338;2023-01-09T12:31:10;8.70;1.00
20231;DHT22;10274;49.022;9.338;2023-01-09T12:33:45;8.70;1.00
20231;DHT22;10274;49.022;9.338;2023-01-09T12:36:21;8.70;1.00
20231;DHT22;10274;49.022;9.338;2023-01-09T12:38:54;8.60;99.90
20231;DHT22;10274;49.022;9.338;2023-01-09T12:41:41;8.30;99.90
20231;DHT22;10274;49.022;9.338;2023-01-09T12:44:24;8.20;1.00
20231;DHT22;10274;49.022;9.338;2023-01-09T12:47:02;8.10;1.00
20231;DHT22;10274;49.022;9.338;2023-01-09T12:49:32;7.90;1.00
20231;DHT22;10274;49.022;9.338;2023-01-09T12:52:06;8.00;1.00
20231;DHT22;10274;49.022;9.338;2023-01-09T12:54:40;7.80;1.00
20231;DHT22;10274;49.022;9.338;2023-01-09T12:57:14;7.80;1.00
20231;DHT22;10274;49.022;9.338;2023-01-09T12:59:47;7.90;1.00
20231;DHT22;10274;49.022;9.338;2023-01-09T13:02:22;7.90;1.00
20231;DHT22;10274;49.022;9.338;2023-01-09T13:04:57;8.10;17.40
20231;DHT22;10274;49.022;9.338;2023-01-09T13:07:27;8.30;19.80
20231;DHT22;10274;49.022;9.338;2023-01-09T13:10:00;8.30;1.00
20231;DHT22;10274;49.022;9.338;2023-01-09T13:12:34;8.50;1.00
20231;DHT22;10274;49.022;9.338;2023-01-09T13:15:04;8.80;1.00
20231;DHT22;10274;49.022;9.338;2023-01-09T13:17:37;9.10;1.00
20231;DHT22;10274;49.022;9.338;2023-01-09T13:20:18;8.90;1.00
20231;DHT22;10274;49.022;9.338;2023-01-09T13:22:45;8.70;1.00
20231;DHT22;10274;49.022;9.338;2023-01-09T13:25:26;8.60;1.00
20231;DHT22;10274;49.022;9.338;2023-01-09T13:28:00;8.60;1.00
20231;DHT22;10274;49.022;9.338;2023-01-09T13:30:53;8.50;1.00
20231;DHT22;10274;49.022;9.338;2023-01-09T13:33:26;8.60;1.00
20231;DHT22;10274;49.022;9.338;2023-01-09T13:35:55;8.70;1.00
20231;DHT22;10274;49.022;9.338;2023-01-09T13:38:25;8.80;1.00
20231;DHT22;10274;49.022;9.338;2023-01-09T13:41:11;8.70;1.00
20231;DHT22;10274;49.022;9.338;2023-01-09T13:43:59;8.60;1.00
20231;DHT22;10274;49.022;9.338;2023-01-09T13:46:34;8.60;1.00
20231;DHT22;10274;49.022;9.338;2023-01-09T13:49:02;8.50;1.00
20231;DHT22;10274;49.022;9.338;2023-01-09T13:51:55;8.40;1.00
20231;DHT22;10274;49.022;9.338;2023-01-09T13:55:01;8.30;1.00
20231;DHT22;10274;49.022;9.338;2023-01-09T13:57:30;8.10;1.00
20231;DHT22;10274;49.022;9.338;2023-01-09T14:03:16;8.00;1.00
20231;DHT22;10274;49.022;9.338;2023-01-09T14:06:13;8.20;1.00
20231;DHT22;10274;49.022;9.338;2023-01-09T14:08:41;9.80;1.00
20231;DHT22;10274;49.022;9.338;2023-01-09T14:11:09;10.40;99.90
20231;DHT22;10274;49.022;9.338;2023-01-09T14:13:45;9.20;1.00
20231;DHT22;10274;49.022;9.338;2023-01-09T14:16:18;10.20;1.00
20231;DHT22;10274;49.022;9.338;2023-01-09T14:18:49;10.70;99.90
20231;DHT22;10274;49.022;9.338;2023-01-09T14:21:17;10.20;99.90
20231;DHT22;10274;49.022;9.338;2023-01-09T14:23:58;10.10;99.90
20231;DHT22;10274;49.022;9.338;2023-01-09T14:26:42;10.00;1.00
20231;DHT22;10274;49.022;9.338;2023-01-09T14:29:42;9.60;1.00
20231;DHT22;10274;49.022;9.338;2023-01-09T14:32:42;8.80;1.00
20231;DHT22;10274;49.022;9.338;2023-01-09T14:35:16;8.80;1.00
20231;DHT22;10274;49.022;9.338;2023-01-09T14:37:48;8.60;99.90
20231;DHT22;10274;49.022;9.338;2023-01-09T14:40:21;8.60;99.90
20231;DHT22;10274;49.022;9.338;2023-01-09T14:42:51;8.40;1.00
20231;DHT22;10274;49.022;9.338;2023-01-09T14:45:21;8.40;1.00
20231;DHT22;10274;49.022;9.338;2023-01-09T14:47:53;8.30;1.00
20231;DHT22;10274;49.022;9.338;2023-01-09T14:50:28;8.30;1.00
20231;DHT22;10274;49.022;9.338;2023-01-09T14:53:01;8.20;99.90
20231;DHT22;10274;49.022;9.338;2023-01-09T14:55:34;8.20;1.00
20231;DHT22;10274;49.022;9.338;2023-01-09T14:58:17;8.10;99.90
20231;DHT22;10274;49.022;9.338;2023-01-09T15:00:47;8.10;99.90
20231;DHT22;10274;49.022;9.338;2023-01-09T15:03:16;8.30;99.90
20231;DHT22;10274;49.022;9.338;2023-01-09T15:05:43;8.20;99.90
20231;DHT22;10274;49.022;9.338;2023-01-09T15:08:13;8.10;99.90
20231;DHT22;10274;49.022;9.338;2023-01-09T15:10:43;8.10;1.00
20231;DHT22;10274;49.022;9.338;2023-01-09T15:13:14;8.00;99.90
20231;DHT22;10274;49.022;9.338;2023-01-09T15:15:44;8.00;1.00
20231;DHT22;10274;49.022;9.338;2023-01-09T15:18:19;7.90;1.00
20231;DHT22;10274;49.022;9.338;2023-01-09T15:20:51;7.90;99.90
20231;DHT22;10274;49.022;9.338;2023-01-09T15:23:21;7.90;99.90
20231;DHT22;10274;49.022;9.338;2023-01-09T15:25:48;7.90;1.00
20231;DHT22;10274;49.022;9.338;2023-01-09T15:28:24;7.90;54.00
20231;DHT22;10274;49.022;9.338;2023-01-09T15:31:02;7.90;1.00
20231;DHT22;10274;49.022;9.338;2023-01-09T15:33:31;7.90;1.00
20231;DHT22;10274;49.022;9.338;2023-01-09T15:36:01;7.70;1.00
20231;DHT22;10274;49.022;9.338;2023-01-09T15:38:30;7.20;1.00
20231;DHT22;10274;49.022;9.338;2023-01-09T15:41:05;6.80;1.00
20231;DHT22;10274;49.022;9.338;2023-01-09T15:43:33;6.40;29.40
20231;DHT22;10274;49.022;9.338;2023-01-09T15:46:01;6.30;58.10
20231;DHT22;10274;49.022;9.338;2023-01-09T15:48:31;6.20;80.00
20231;DHT22;10274;49.022;9.338;2023-01-09T15:51:02;6.20;83.50
20231;DHT22;10274;49.022;9.338;2023-01-09T15:53:29;6.10;22.20
20231;DHT22;10274;49.022;9.338;2023-01-09T15:56:20;6.10;18.20
20231;DHT22;10274;49.022;9.338;2023-01-09T15:58:49;6.00;21.60
20231;DHT22;10274;49.022;9.338;2023-01-09T16:01:27;6.10;34.80
20231;DHT22;10274;49.022;9.338;2023-01-09T16:04:02;6.00;9.00
20231;DHT22;10274;49.022;9.338;2023-01-09T16:06:31;6.00;25.40
20231;DHT22;10274;49.022;9.338;2023-01-09T16:08:59;6.00;25.70
20231;DHT22;10274;49.022;9.338;2023-01-09T16:11:29;6.00;29.20
20231;DHT22;10274;49.022;9.338;2023-01-09T16:14:02;6.00;9.20
20231;DHT22;10274;49.022;9.338;2023-01-09T16:16:35;6.10;6.10
20231;DHT22;10274;49.022;9.338;2023-01-09T16:19:03;6.00;17.80
20231;DHT22;10274;49.022;9.338;2023-01-09T16:21:32;6.00;9.20
20231;DHT22;10274;49.022;9.338;2023-01-09T16:24:01;6.10;10.80
20231;DHT22;10274;49.022;9.338;2023-01-09T16:26:29;6.00;43.70